Time;durP1;ratioP1;P1;durP2;ratioP2;P2;SDS_P1;SDS_P2;PMS_P1;PMS_P2;Temp;Humidity;BMP_temperature;BMP_pressure;BME280_temperature;BME280_humidity;BME280_pressure;Samples;Min_cycle;Max_cycle;Signal;HPM_P1;HPM_P2
2021/07/03 00:02:19;;;;;;;27.90;20.23;;;;;;;16.89;76.56;101614.75;5071980;28;20048;-51
2021/07/03 00:04:47;;;;;;;29.02;21.05;;;;;;;16.86;76.28;101609.84;5071870;28;20410;-53
2021/07/03 00:07:15;;;;;;;25.98;19.27;;;;;;;16.85;76.52;101615.63;5071807;28;20538;-54
2021/07/03 00:09:43;;;;;;;28.75;19.27;;;;;;;16.88;76.70;101610.34;5072267;28;20044;-54
2021/07/03 00:12:10;;;;;;;28.02;19.73;;;;;;;16.89;76.65;101612.00;5053587;28;20047;-50
2021/07/03 00:14:38;;;;;;;29.35;19.80;;;;;;;16.91;76.19;101615.28;5054994;28;20037;-52
2021/07/03 00:17:06;;;;;;;31.90;20.92;;;;;;;16.91;76.06;101609.78;5076113;28;20470;-51
2021/07/03 00:19:34;;;;;;;26.67;19.05;;;;;;;16.92;76.19;101605.91;5075959;28;20040;-54
2021/07/03 00:22:01;;;;;;;28.65;20.65;;;;;;;16.89;75.81;101606.50;5076195;28;20049;-52
2021/07/03 00:24:29;;;;;;;31.08;21.33;;;;;;;16.83;75.99;101607.66;5075943;28;20509;-54
2021/07/03 00:26:58;;;;;;;27.90;19.58;;;;;;;16.75;76.19;101605.50;5075463;28;20048;-52
2021/07/03 00:29:26;;;;;;;28.13;20.45;;;;;;;16.70;76.24;101609.13;5075213;28;20075;-52
2021/07/03 00:31:53;;;;;;;29.48;21.25;;;;;;;16.68;76.46;101607.78;5075964;28;20024;-53
2021/07/03 00:34:21;;;;;;;28.17;20.20;;;;;;;16.62;76.77;101609.75;5075593;28;20036;-55
2021/07/03 00:36:49;;;;;;;32.03;20.75;;;;;;;16.61;77.03;101614.44;5075840;28;20398;-53
2021/07/03 00:39:17;;;;;;;30.90;20.60;;;;;;;16.62;77.01;101607.00;5075670;28;20526;-52
2021/07/03 00:41:45;;;;;;;30.10;21.63;;;;;;;16.65;77.14;101609.19;5075316;28;20044;-52
2021/07/03 00:44:12;;;;;;;35.45;23.08;;;;;;;16.60;76.49;101604.53;5075383;28;20052;-50
2021/07/03 00:46:41;;;;;;;30.98;22.85;;;;;;;16.55;76.88;101603.78;5075538;28;20029;-54
2021/07/03 00:49:08;;;;;;;33.20;21.35;;;;;;;16.49;77.17;101597.47;5073718;28;20113;-54
2021/07/03 00:51:37;;;;;;;30.42;21.90;;;;;;;16.45;77.28;101590.94;5057552;28;20033;-53
2021/07/03 00:54:06;;;;;;;31.50;21.60;;;;;;;16.42;77.57;101590.69;5057053;28;20415;-52
2021/07/03 00:56:33;;;;;;;32.92;21.40;;;;;;;16.38;77.57;101598.69;5057090;28;20059;-52
2021/07/03 00:59:01;;;;;;;29.45;20.67;;;;;;;16.35;77.45;101599.25;5057413;28;20049;-54
2021/07/03 01:01:29;;;;;;;30.55;20.95;;;;;;;16.36;77.47;101598.97;5075542;28;20036;-51
2021/07/03 01:03:57;;;;;;;28.13;19.77;;;;;;;16.38;77.67;101598.69;5057182;28;20136;-49
2021/07/03 01:06:25;;;;;;;31.20;20.35;;;;;;;16.37;77.19;101600.59;5075006;28;20040;-52
2021/07/03 01:08:53;;;;;;;28.25;20.02;;;;;;;16.36;77.46;101600.91;5057371;28;20084;-51
2021/07/03 01:11:26;;;;;;;27.50;19.83;;;;;;;16.37;77.41;101602.53;5056738;28;20090;-50
2021/07/03 01:13:55;;;;;;;27.20;19.30;;;;;;;16.35;77.18;101604.75;5074660;28;20059;-51
2021/07/03 01:16:23;;;;;;;28.38;20.92;;;;;;;16.33;77.23;101601.47;5075240;28;20040;-51
2021/07/03 01:18:52;;;;;;;28.35;21.48;;;;;;;16.31;76.94;101596.28;5056807;28;20518;-50
2021/07/03 01:21:20;;;;;;;25.83;19.02;;;;;;;16.31;77.22;101595.47;5056799;28;20384;-52
2021/07/03 01:23:48;;;;;;;28.10;20.05;;;;;;;16.28;76.98;101596.00;5024204;28;20060;-53
2021/07/03 01:26:17;;;;;;;30.17;20.95;;;;;;;16.29;76.91;101595.75;5055453;28;20460;-53
2021/07/03 01:28:45;;;;;;;29.25;21.45;;;;;;;16.28;77.30;101596.00;5040092;28;20058;-52
2021/07/03 01:31:13;;;;;;;30.52;21.60;;;;;;;16.23;76.99;101602.38;5056927;28;20045;-51
2021/07/03 01:33:43;;;;;;;30.08;22.25;;;;;;;16.16;77.55;101593.63;5074606;28;20048;-54
2021/07/03 01:36:12;;;;;;;34.28;22.33;;;;;;;16.14;77.51;101585.69;5056443;28;20403;-55
2021/07/03 01:38:39;;;;;;;28.73;20.83;;;;;;;16.12;77.76;101587.91;5056806;28;20160;-55
2021/07/03 01:41:12;;;;;;;31.02;21.95;;;;;;;16.12;77.76;101601.66;5056183;28;20041;-54
2021/07/03 01:43:51;;;;;;;29.17;21.27;;;;;;;16.09;77.33;101593.97;5056455;28;20510;-53
2021/07/03 01:46:21;;;;;;;27.42;20.65;;;;;;;16.11;77.46;101594.47;5056766;28;20502;-54
2021/07/03 01:48:48;;;;;;;30.50;21.35;;;;;;;16.14;77.22;101596.69;5073988;28;20094;-51
2021/07/03 01:51:34;;;;;;;30.67;21.48;;;;;;;16.12;76.99;101593.41;5056465;28;20113;-49
2021/07/03 01:54:02;;;;;;;28.00;20.67;;;;;;;16.09;77.13;101587.63;5056518;28;20099;-52
2021/07/03 01:56:30;;;;;;;29.00;20.45;;;;;;;16.11;77.43;101599.16;5055951;28;20499;-50
2021/07/03 01:59:01;;;;;;;33.40;22.38;;;;;;;16.11;77.25;101602.72;5056094;28;20098;-52
2021/07/03 02:01:43;;;;;;;28.08;21.27;;;;;;;16.13;77.21;101600.53;5056403;28;20052;-51
2021/07/03 02:04:13;;;;;;;27.05;19.73;;;;;;;16.12;76.66;101604.41;5056395;28;20040;-51
2021/07/03 02:06:46;;;;;;;31.30;21.77;;;;;;;16.12;76.81;101598.09;5056053;28;20040;-51
2021/07/03 02:09:19;;;;;;;30.77;20.98;;;;;;;16.05;76.51;101592.91;5073699;28;20110;-52
2021/07/03 02:11:49;;;;;;;29.10;20.75;;;;;;;16.03;77.07;101594.28;5039048;28;20052;-52
2021/07/03 02:14:22;;;;;;;26.40;19.48;;;;;;;16.02;77.01;101601.72;5073955;28;20048;-53
2021/07/03 02:17:10;;;;;;;32.08;22.42;;;;;;;16.03;76.64;101589.59;5055888;28;20051;-51
2021/07/03 02:19:39;;;;;;;28.63;21.55;;;;;;;16.02;76.46;101587.97;5056111;28;20048;-51
2021/07/03 02:22:10;;;;;;;31.50;22.98;;;;;;;16.00;76.89;101584.69;5055541;28;20048;-50
2021/07/03 02:24:44;;;;;;;33.28;22.17;;;;;;;15.92;77.14;101577.03;5073265;28;20123;-50
2021/07/03 02:27:11;;;;;;;33.28;23.20;;;;;;;15.86;77.32;101569.94;5055651;28;20059;-50
2021/07/03 02:29:42;;;;;;;35.60;23.80;;;;;;;15.82;77.36;101566.94;5055575;28;20053;-50
2021/07/03 02:32:09;;;;;;;32.22;22.52;;;;;;;15.80;77.37;101563.66;5055501;28;20068;-52
2021/07/03 02:34:37;;;;;;;33.33;23.05;;;;;;;15.79;77.25;101566.69;5073444;28;20055;-50
2021/07/03 02:37:05;;;;;;;33.05;23.42;;;;;;;15.77;77.67;101570.53;5055021;28;20045;-52
2021/07/03 02:39:35;;;;;;;32.92;23.17;;;;;;;15.79;77.48;101566.69;5055536;28;20514;-54
2021/07/03 02:42:03;;;;;;;31.38;22.73;;;;;;;15.81;77.56;101561.75;5056188;28;20067;-55
2021/07/03 02:44:33;;;;;;;37.33;25.60;;;;;;;15.83;77.47;101565.03;5073611;28;20044;-54
2021/07/03 02:47:01;;;;;;;35.80;25.52;;;;;;;15.82;77.32;101566.13;5056060;28;20512;-55
2021/07/03 02:49:29;;;;;;;36.92;25.55;;;;;;;15.81;77.76;101559.00;5051913;28;20496;-51
2021/07/03 02:51:57;;;;;;;35.17;25.45;;;;;;;15.79;77.40;101552.97;5070697;28;20049;-50
2021/07/03 02:54:25;;;;;;;34.88;25.58;;;;;;;15.79;77.43;101555.72;5055232;28;20462;-50
2021/07/03 02:56:57;;;;;;;35.47;25.08;;;;;;;15.75;77.50;101550.78;5055247;28;20049;-52
2021/07/03 02:59:28;;;;;;;34.33;24.45;;;;;;;15.75;77.60;101541.69;5073085;28;20131;-48
2021/07/03 03:01:57;;;;;;;36.42;25.67;;;;;;;15.77;77.65;101545.00;5055081;28;20513;-50
2021/07/03 03:04:25;;;;;;;33.03;23.70;;;;;;;15.78;77.72;101541.16;5055047;28;20044;-50
2021/07/03 03:06:52;;;;;;;34.47;25.05;;;;;;;15.81;77.71;101539.75;5054533;28;20502;-48
2021/07/03 03:09:20;;;;;;;33.92;25.30;;;;;;;15.79;77.21;101534.53;5055141;28;20037;-53
2021/07/03 03:11:47;;;;;;;32.75;24.95;;;;;;;15.80;77.44;101535.34;5072800;28;20052;-51
2021/07/03 03:14:15;;;;;;;40.30;26.40;;;;;;;15.80;77.22;101538.09;5072625;28;20049;-51
2021/07/03 03:16:43;;;;;;;37.40;26.55;;;;;;;15.80;77.38;101538.09;5054623;28;20495;-50
2021/07/03 03:19:10;;;;;;;37.13;26.55;;;;;;;15.77;77.25;101540.31;5072605;28;20083;-53
2021/07/03 03:21:41;;;;;;;37.50;27.40;;;;;;;15.77;77.20;101537.56;5054432;28;20052;-50
2021/07/03 03:24:09;;;;;;;38.10;26.58;;;;;;;15.79;77.19;101533.72;5054706;28;20036;-51
2021/07/03 03:26:36;;;;;;;37.08;25.90;;;;;;;15.76;77.26;101535.94;5072696;28;20097;-54
2021/07/03 03:29:07;;;;;;;35.05;25.05;;;;;;;15.77;77.13;101529.31;5054606;28;20059;-55
2021/07/03 03:31:35;;;;;;;34.95;25.60;;;;;;;15.81;77.45;101532.34;5054665;28;20101;-52
2021/07/03 03:34:04;;;;;;;33.88;23.35;;;;;;;15.86;77.35;101523.22;5072378;28;20049;-52
2021/07/03 03:36:32;;;;;;;37.05;26.05;;;;;;;15.87;77.12;101522.09;5071991;28;20052;-49
2021/07/03 03:39:02;;;;;;;35.95;24.73;;;;;;;15.86;76.67;101524.03;5054346;28;20045;-50
2021/07/03 03:41:29;;;;;;;33.33;24.25;;;;;;;15.86;76.60;101524.03;5072489;28;20127;-53
2021/07/03 03:43:59;;;;;;;35.67;26.80;;;;;;;15.85;76.70;101521.56;5053917;28;20068;-49
2021/07/03 03:46:30;;;;;;;36.05;25.13;;;;;;;15.83;76.57;101529.31;5054295;28;20097;-49
2021/07/03 03:48:59;;;;;;;33.60;23.60;;;;;;;15.83;76.69;101534.81;5053623;28;20051;-57
2021/07/03 03:51:27;;;;;;;33.72;26.00;;;;;;;15.85;76.52;101538.06;5053974;28;20041;-50
2021/07/03 03:53:55;;;;;;;35.92;25.10;;;;;;;15.86;76.30;101534.22;5072321;28;20090;-51
2021/07/03 03:56:23;;;;;;;39.33;26.63;;;;;;;15.84;76.24;101536.44;5071964;28;20048;-47
2021/07/03 03:58:52;;;;;;;41.47;27.90;;;;;;;15.80;76.66;101524.34;5054203;28;20051;-49
2021/07/03 04:01:24;;;;;;;35.08;24.40;;;;;;;15.77;76.69;101534.00;5054114;28;20041;-47
2021/07/03 04:03:52;;;;;;;33.60;25.65;;;;;;;15.74;77.25;101526.34;5071969;28;20041;-53
2021/07/03 04:06:20;;;;;;;34.80;23.17;;;;;;;15.75;76.96;101527.97;5053479;28;20047;-50
2021/07/03 04:08:47;;;;;;;35.65;24.65;;;;;;;15.74;77.04;101532.66;5054217;28;20080;-50
2021/07/03 04:11:15;;;;;;;30.52;21.95;;;;;;;15.75;77.29;101527.97;5054258;28;20128;-51
2021/07/03 04:13:43;;;;;;;33.83;24.45;;;;;;;15.79;77.07;101529.03;5071482;28;20059;-53
2021/07/03 04:16:10;;;;;;;36.88;25.13;;;;;;;15.79;76.86;101511.75;5071760;28;20049;-50
2021/07/03 04:18:38;;;;;;;37.20;25.73;;;;;;;15.77;76.84;101512.84;5071616;28;20044;-55
2021/07/03 04:21:06;;;;;;;28.67;22.17;;;;;;;15.79;77.21;101506.25;5071651;28;20040;-55
2021/07/03 04:23:34;;;;;;;33.90;25.95;;;;;;;15.77;76.91;101515.59;5071857;28;20052;-53
2021/07/03 04:26:02;;;;;;;35.70;23.45;;;;;;;15.80;77.52;101519.69;5071804;28;20048;-51
2021/07/03 04:28:30;;;;;;;33.38;24.52;;;;;;;15.84;77.28;101526.25;5071549;28;20094;-50
2021/07/03 04:30:58;;;;;;;31.77;23.60;;;;;;;15.88;77.08;101529.25;5053885;28;20083;-54
2021/07/03 04:33:26;;;;;;;32.22;23.30;;;;;;;15.92;76.84;101533.06;5053817;28;20055;-51
2021/07/03 04:35:54;;;;;;;29.88;20.50;;;;;;;15.96;77.01;101525.91;5071504;28;20144;-53
2021/07/03 04:38:21;;;;;;;30.17;21.50;;;;;;;16.02;76.95;101533.00;5071916;28;20119;-50
2021/07/03 04:40:49;;;;;;;33.28;23.65;;;;;;;16.06;76.92;101539.53;5071490;28;20067;-51
2021/07/03 04:43:17;;;;;;;37.30;26.10;;;;;;;16.10;76.79;101529.63;5071730;28;20087;-53
2021/07/03 04:45:44;;;;;;;39.60;24.33;;;;;;;16.10;76.69;101529.63;5071345;28;20044;-53
2021/07/03 04:48:13;;;;;;;36.85;26.25;;;;;;;16.08;76.88;101528.28;5071370;28;20044;-51
2021/07/03 04:50:46;;;;;;;31.95;23.30;;;;;;;16.07;76.66;101527.47;5071406;28;20140;-51
2021/07/03 04:53:13;;;;;;;32.20;21.63;;;;;;;16.08;76.87;101540.09;5071514;28;20072;-51
2021/07/03 04:55:42;;;;;;;29.55;20.40;;;;;;;16.12;76.66;101538.41;5053523;28;20049;-52
2021/07/03 04:58:10;;;;;;;34.55;24.63;;;;;;;16.18;76.76;101542.75;5071274;28;20046;-52
2021/07/03 05:00:37;;;;;;;34.45;23.85;;;;;;;16.24;76.41;101545.47;5054922;28;20047;-48
2021/07/03 05:03:05;;;;;;;30.73;22.05;;;;;;;16.25;76.68;101542.41;5074594;28;20380;-52
2021/07/03 05:05:33;;;;;;;28.48;21.00;;;;;;;16.27;76.67;101544.88;5074960;28;20036;-52
2021/07/03 05:08:00;;;;;;;31.35;22.73;;;;;;;16.29;76.26;101548.16;5075194;28;20029;-50
2021/07/03 05:10:28;;;;;;;33.30;23.88;;;;;;;16.30;76.20;101536.03;5074432;28;20044;-54
2021/07/03 05:12:55;;;;;;;37.42;24.75;;;;;;;16.30;76.10;101538.81;5075089;28;20048;-50
2021/07/03 05:15:24;;;;;;;28.40;20.95;;;;;;;16.29;76.32;101538.00;5074510;28;20458;-53
2021/07/03 05:17:52;;;;;;;31.75;23.25;;;;;;;16.29;76.31;101537.16;5074610;28;20041;-50
2021/07/03 05:20:20;;;;;;;32.97;21.98;;;;;;;16.29;76.19;101526.97;5074539;28;20049;-50
2021/07/03 05:22:48;;;;;;;29.90;20.70;;;;;;;16.33;76.46;101527.22;5074731;28;20433;-51
2021/07/03 05:25:15;;;;;;;31.30;21.30;;;;;;;16.38;76.32;101525.25;5074599;28;20048;-52
2021/07/03 05:27:43;;;;;;;30.23;21.92;;;;;;;16.41;75.82;101515.59;5074644;28;20036;-53
2021/07/03 05:30:11;;;;;;;33.83;25.17;;;;;;;16.43;75.63;101513.38;5074882;28;20048;-49
2021/07/03 05:32:39;;;;;;;32.47;24.77;;;;;;;16.45;75.67;101513.06;5074210;28;20048;-54
2021/07/03 05:35:07;;;;;;;31.58;23.42;;;;;;;16.47;75.66;101514.41;5074648;28;20060;-46
2021/07/03 05:37:35;;;;;;;34.05;23.48;;;;;;;16.50;75.50;101515.78;5074227;28;20047;-50
2021/07/03 05:40:04;;;;;;;31.50;24.20;;;;;;;16.55;75.74;101510.25;5074206;28;20051;-48
2021/07/03 05:42:32;;;;;;;32.25;22.42;;;;;;;16.58;74.98;101513.22;5074384;28;20047;-49
2021/07/03 05:44:59;;;;;;;24.17;17.13;;;;;;;16.65;75.25;101514.81;5074402;28;20044;-50
2021/07/03 05:47:27;;;;;;;22.38;16.88;;;;;;;16.68;75.00;101516.97;5073632;28;20052;-50
2021/07/03 05:49:54;;;;;;;21.33;15.52;;;;;;;16.71;74.71;101516.38;5074124;28;20418;-51
2021/07/03 05:52:22;;;;;;;32.15;21.65;;;;;;;16.71;74.61;101505.38;5056028;28;20032;-51
2021/07/03 05:54:49;;;;;;;30.90;22.23;;;;;;;16.76;74.73;101502.56;5074328;28;20028;-50
2021/07/03 05:57:17;;;;;;;31.10;22.60;;;;;;;16.78;74.91;101500.34;5074001;28;20052;-50
2021/07/03 05:59:45;;;;;;;25.90;17.90;;;;;;;16.81;74.39;101499.78;5074217;28;20053;-50
2021/07/03 06:02:12;;;;;;;30.15;22.30;;;;;;;16.85;74.73;101508.28;5073766;28;20525;-50
2021/07/03 06:04:40;;;;;;;26.75;19.70;;;;;;;16.87;74.98;101504.13;5073736;28;20062;-50
2021/07/03 06:07:07;;;;;;;35.20;27.45;;;;;;;16.90;74.75;101497.19;5074029;28;20044;-50
2021/07/03 06:09:35;;;;;;;33.78;22.63;;;;;;;16.91;74.46;101505.19;5073805;28;20525;-51
2021/07/03 06:12:03;;;;;;;34.42;22.35;;;;;;;16.95;74.36;101491.63;5073229;28;20052;-51
2021/07/03 06:14:31;;;;;;;30.85;22.70;;;;;;;16.97;74.73;101492.16;5073302;28;20041;-51
2021/07/03 06:16:58;;;;;;;36.28;24.20;;;;;;;17.00;74.85;101497.91;5073513;28;20047;-52
2021/07/03 06:19:26;;;;;;;25.83;19.52;;;;;;;17.06;74.64;101495.09;5073529;28;20049;-53
2021/07/03 06:21:53;;;;;;;20.70;14.10;;;;;;;17.09;74.66;101483.47;5073339;28;20506;-51
2021/07/03 06:24:21;;;;;;;28.45;19.50;;;;;;;17.11;74.79;101490.31;5073693;28;20041;-51
2021/07/03 06:26:49;;;;;;;26.20;17.92;;;;;;;17.16;74.54;101484.75;5073673;28;20059;-49
2021/07/03 06:29:16;;;;;;;21.90;15.02;;;;;;;17.20;74.34;101487.72;5073084;28;20041;-49
2021/07/03 06:31:43;;;;;;;29.88;21.33;;;;;;;17.22;74.17;101485.47;5073405;28;20049;-51
2021/07/03 06:34:11;;;;;;;26.30;19.58;;;;;;;17.25;74.02;101493.16;5073018;28;20048;-54
2021/07/03 06:36:39;;;;;;;34.63;23.98;;;;;;;17.25;74.23;101499.50;5073481;28;20052;-50
2021/07/03 06:39:07;;;;;;;31.90;23.15;;;;;;;17.26;74.27;101494.78;5055478;28;20049;-54
2021/07/03 06:41:35;;;;;;;29.20;20.77;;;;;;;17.30;74.20;101495.84;5073405;28;20040;-48
2021/07/03 06:44:02;;;;;;;34.05;22.95;;;;;;;17.35;74.37;101495.78;5072449;28;20043;-49
2021/07/03 06:46:30;;;;;;;29.80;22.08;;;;;;;17.40;74.58;101495.69;5073317;28;20041;-50
2021/07/03 06:48:58;;;;;;;33.88;22.17;;;;;;;17.45;74.73;101492.88;5055083;28;20128;-50
2021/07/03 06:51:26;;;;;;;31.60;21.83;;;;;;;17.45;74.43;101495.63;5073119;28;20052;-51
2021/07/03 06:53:57;;;;;;;36.05;25.23;;;;;;;17.48;74.71;101501.66;5073016;28;20052;-52
2021/07/03 06:56:25;;;;;;;34.65;25.67;;;;;;;17.50;74.44;101496.66;5072873;28;20505;-49
2021/07/03 06:58:52;;;;;;;28.55;20.40;;;;;;;17.51;74.00;101495.53;5072993;28;20391;-50
2021/07/03 07:01:20;;;;;;;29.90;20.95;;;;;;;17.53;74.27;101498.81;5072687;28;20048;-54
2021/07/03 07:03:47;;;;;;;34.50;24.42;;;;;;;17.58;74.72;101495.97;5072941;28;20051;-50
2021/07/03 07:06:15;;;;;;;30.20;21.58;;;;;;;17.65;74.42;101493.66;5054791;28;20040;-51
2021/07/03 07:08:42;;;;;;;33.58;25.05;;;;;;;17.67;74.07;101488.69;5072484;28;20381;-52
2021/07/03 07:11:10;;;;;;;34.30;24.65;;;;;;;17.67;74.02;101494.19;5072635;28;20044;-55
2021/07/03 07:13:37;;;;;;;36.13;24.55;;;;;;;17.67;74.08;101489.50;5072319;28;20037;-52
2021/07/03 07:16:05;;;;;;;30.83;22.48;;;;;;;17.70;74.05;101492.78;5072576;28;20037;-54
2021/07/03 07:18:33;;;;;;;36.45;25.67;;;;;;;17.70;74.20;101496.34;5072385;28;20040;-56
2021/07/03 07:21:00;;;;;;;32.95;24.10;;;;;;;17.73;74.08;101493.00;5072682;28;20037;-53
2021/07/03 07:23:28;;;;;;;33.60;24.08;;;;;;;17.76;74.07;101492.41;5072358;28;20125;-54
2021/07/03 07:25:56;;;;;;;33.45;24.02;;;;;;;17.80;74.57;101498.16;5072378;28;20040;-50
2021/07/03 07:28:23;;;;;;;29.77;23.13;;;;;;;17.86;74.47;101489.50;5071765;28;20060;-53
2021/07/03 07:30:51;;;;;;;34.00;25.33;;;;;;;17.96;74.17;101495.97;5072156;28;20045;-50
2021/07/03 07:33:18;;;;;;;33.42;24.70;;;;;;;18.02;74.22;101487.31;5072570;28;20040;-49
2021/07/03 07:35:46;;;;;;;31.67;23.95;;;;;;;18.06;74.02;101490.28;5072354;28;20048;-51
2021/07/03 07:38:13;;;;;;;31.77;18.83;;;;;;;18.09;73.18;101487.75;5072593;28;20056;-52
2021/07/03 07:40:41;;;;;;;32.20;24.80;;;;;;;18.10;73.02;101491.31;5072154;28;20048;-52
2021/07/03 07:43:08;;;;;;;29.73;22.83;;;;;;;18.12;73.10;101489.06;5071973;28;20090;-50
2021/07/03 07:45:36;;;;;;;31.58;24.13;;;;;;;18.13;72.94;101490.69;5072111;28;20417;-54
2021/07/03 07:48:04;;;;;;;31.13;22.38;;;;;;;18.14;72.99;101480.50;5054441;28;20040;-49
2021/07/03 07:50:35;;;;;;;29.08;20.65;;;;;;;18.17;73.06;101485.41;5072010;28;20065;-53
2021/07/03 07:53:03;;;;;;;33.33;24.80;;;;;;;18.20;72.92;101482.84;5053921;28;20059;-52
2021/07/03 07:55:31;;;;;;;32.78;23.17;;;;;;;18.27;72.46;101486.03;5072267;28;20494;-53
2021/07/03 07:57:58;;;;;;;34.92;23.40;;;;;;;18.63;72.00;101482.59;5071565;28;20036;-53
2021/07/03 08:00:26;;;;;;;31.23;24.45;;;;;;;18.74;70.45;101484.03;5071722;28;20044;-53
2021/07/03 08:02:54;;;;;;;30.08;21.58;;;;;;;18.74;70.16;101484.03;5072200;28;20037;-52
2021/07/03 08:05:22;;;;;;;32.35;22.92;;;;;;;18.71;70.28;101476.38;5071982;28;20045;-53
2021/07/03 08:07:49;;;;;;;24.45;18.40;;;;;;;18.70;70.59;101471.97;5071941;28;20040;-50
2021/07/03 08:10:17;;;;;;;29.88;21.98;;;;;;;18.68;71.68;101476.97;5071979;28;20051;-50
2021/07/03 08:12:45;;;;;;;34.03;26.08;;;;;;;18.72;71.41;101475.25;5071535;28;20067;-52
2021/07/03 08:15:14;;;;;;;30.08;21.58;;;;;;;18.78;70.34;101484.25;5071383;28;20044;-52
2021/07/03 08:17:43;;;;;;;25.55;19.00;;;;;;;18.83;70.48;101480.56;5071914;28;20051;-52
2021/07/03 08:20:16;;;;;;;32.60;22.73;;;;;;;18.92;70.70;101479.53;5071807;28;20049;-51
2021/07/03 08:22:45;;;;;;;27.80;18.70;;;;;;;18.99;70.48;101473.63;5068198;28;20048;-53
2021/07/03 08:25:13;;;;;;;29.70;20.75;;;;;;;19.07;68.82;101474.81;5053623;28;20046;-53
2021/07/03 08:27:41;;;;;;;26.17;19.08;;;;;;;19.11;68.72;101471.13;5053189;28;20075;-54
2021/07/03 08:30:09;;;;;;;26.20;18.23;;;;;;;19.11;68.74;101471.13;5071643;28;20052;-51
2021/07/03 08:32:37;;;;;;;26.58;20.67;;;;;;;19.12;68.81;101472.78;5072572;28;20487;-52
2021/07/03 08:35:07;;;;;;;28.55;21.45;;;;;;;19.14;69.12;101473.28;5074303;28;20040;-55
2021/07/03 08:37:35;;;;;;;29.95;21.20;;;;;;;19.22;68.87;101465.38;5075736;28;20037;-55
2021/07/03 08:40:06;;;;;;;26.40;19.67;;;;;;;19.27;69.01;101463.34;5075286;28;20029;-53
2021/07/03 08:42:34;;;;;;;28.75;19.70;;;;;;;19.33;68.63;101464.03;5074889;28;20048;-53
2021/07/03 08:45:03;;;;;;;31.05;22.20;;;;;;;19.33;68.42;101462.06;5075102;28;20048;-51
2021/07/03 08:47:31;;;;;;;27.80;19.00;;;;;;;19.37;67.51;101456.75;5075257;28;20051;-51
2021/07/03 08:50:02;;;;;;;23.20;17.08;;;;;;;19.37;66.05;101451.22;5075187;28;20063;-52
2021/07/03 08:52:29;;;;;;;18.98;13.82;;;;;;;19.37;65.38;101454.00;5074871;28;20049;-50
2021/07/03 08:55:12;;;;;;;22.35;15.07;;;;;;;19.39;64.84;101460.03;5074686;28;20040;-54
2021/07/03 08:57:51;;;;;;;21.20;15.18;;;;;;;19.49;63.93;101445.97;5075314;28;20040;-51
2021/07/03 09:00:23;;;;;;;20.08;14.15;;;;;;;19.54;64.12;101451.34;5075001;28;20530;-51
2021/07/03 09:02:51;;;;;;;28.30;18.00;;;;;;;19.60;64.26;101443.75;5075311;28;20047;-52
2021/07/03 09:05:20;;;;;;;22.35;15.90;;;;;;;19.70;63.84;101431.66;5075086;28;20036;-51
2021/07/03 09:07:48;;;;;;;23.10;17.88;;;;;;;19.70;64.27;101431.66;5075226;28;20040;-51
2021/07/03 09:10:23;;;;;;;24.90;17.75;;;;;;;19.73;64.96;101434.63;5056692;28;20063;-52
2021/07/03 09:12:52;;;;;;;28.23;18.10;;;;;;;19.76;65.10;101424.88;5074933;28;20503;-51
2021/07/03 09:15:24;;;;;;;23.15;16.50;;;;;;;19.80;64.48;101425.88;5075092;28;20064;-50
2021/07/03 09:18:06;;;;;;;22.48;15.50;;;;;;;19.87;64.00;101419.91;5075025;28;20086;-49
2021/07/03 09:20:36;;;;;;;23.65;15.25;;;;;;;19.95;63.13;101430.19;5074588;28;20048;-51
2021/07/03 09:23:10;;;;;;;21.77;15.60;;;;;;;20.02;63.48;101425.03;5074866;28;20028;-53
2021/07/03 09:25:43;;;;;;;21.00;14.15;;;;;;;20.04;63.10;101427.50;5074634;28;20043;-52
2021/07/03 09:28:15;;;;;;;20.90;14.57;;;;;;;20.07;63.23;101426.84;5074518;28;20054;-50
2021/07/03 09:30:45;;;;;;;20.05;14.10;;;;;;;20.12;63.52;101426.72;5074600;28;20044;-49
2021/07/03 09:33:21;;;;;;;20.25;13.60;;;;;;;20.16;62.81;101425.75;5074631;28;20043;-51
2021/07/03 09:35:57;;;;;;;21.20;14.23;;;;;;;20.20;63.14;101423.16;5074572;28;20056;-53
2021/07/03 09:39:01;;;;;;;23.30;17.00;;;;;;;20.33;63.40;101427.78;5056045;28;20037;-54
2021/07/03 09:41:35;;;;;;;20.02;15.23;;;;;;;20.35;63.05;101433.00;5070671;28;20509;-52
2021/07/03 09:44:08;;;;;;;24.08;16.05;;;;;;;20.39;62.39;101433.97;5074114;28;20032;-51
2021/07/03 09:46:52;;;;;;;24.23;16.15;;;;;;;20.43;62.68;101433.03;5073928;28;20045;-53
2021/07/03 09:49:25;;;;;;;23.85;15.35;;;;;;;20.40;62.07;101427.31;5074777;28;20056;-54
2021/07/03 09:51:55;;;;;;;22.33;15.63;;;;;;;20.39;63.29;101433.97;5057892;28;20055;-53
2021/07/03 09:54:28;;;;;;;22.27;14.05;;;;;;;20.42;63.36;101436.94;5074830;28;20032;-55
2021/07/03 09:56:59;;;;;;;21.10;11.15;;;;;;;20.42;62.76;101428.63;5075028;28;20037;-55
2021/07/03 09:59:34;;;;;;;20.90;14.15;;;;;;;20.40;62.42;101421.78;4715642;28;10000094;-51
2021/07/03 10:02:03;;;;;;;21.35;14.30;;;;;;;20.41;62.16;101424.22;5070720;28;20056;-55
2021/07/03 10:04:31;;;;;;;16.80;12.32;;;;;;;20.46;61.36;101420.50;5071876;28;20048;-49
2021/07/03 10:07:24;;;;;;;18.85;11.20;;;;;;;20.50;60.76;101426.22;5071403;28;20519;-51
2021/07/03 10:10:03;;;;;;;14.05;9.45;;;;;;;20.52;60.78;101418.41;5054502;28;20468;-53
2021/07/03 10:12:35;;;;;;;17.80;11.18;;;;;;;20.54;60.80;101416.13;5058497;28;20052;-51
2021/07/03 10:15:03;;;;;;;18.73;10.55;;;;;;;20.55;60.69;101426.06;5053964;28;20053;-51
2021/07/03 10:17:34;;;;;;;15.98;10.68;;;;;;;20.59;60.65;101418.78;5058065;28;20053;-49
2021/07/03 10:20:04;;;;;;;14.90;9.38;;;;;;;20.59;60.24;101419.59;5071427;28;20131;-54
2021/07/03 10:22:35;;;;;;;15.77;9.75;;;;;;;20.57;60.29;101426.59;5070472;28;20036;-48
2021/07/03 10:25:14;;;;;;;15.43;10.10;;;;;;;20.61;60.09;101422.03;5071467;28;20049;-55
2021/07/03 10:27:58;;;;;;;15.85;9.80;;;;;;;20.65;59.93;101417.50;5059750;28;20036;-50
2021/07/03 10:30:30;;;;;;;14.57;9.73;;;;;;;20.68;60.13;101416.03;5073506;28;20054;-54
2021/07/03 10:33:17;;;;;;;14.88;9.18;;;;;;;20.71;60.59;101409.84;5073881;28;20044;-50
2021/07/03 10:35:46;;;;;;;16.05;11.38;;;;;;;20.70;60.94;101409.03;5073044;28;20040;-53
2021/07/03 10:38:17;;;;;;;18.55;12.43;;;;;;;20.74;60.95;101407.25;5073448;28;20056;-53
2021/07/03 10:40:45;;;;;;;16.75;12.23;;;;;;;20.82;60.18;101409.22;5055442;28;20099;-54
2021/07/03 10:43:14;;;;;;;17.63;11.73;;;;;;;20.87;59.81;101404.66;5072934;28;20044;-51
2021/07/03 10:45:51;;;;;;;14.70;9.70;;;;;;;20.85;59.89;101400.28;5055033;28;20396;-52
2021/07/03 10:48:26;;;;;;;14.93;9.15;;;;;;;20.80;59.42;101399.59;5073360;28;20094;-52
2021/07/03 10:51:09;;;;;;;12.35;8.77;;;;;;;20.79;59.48;101401.56;5072445;28;20072;-55
2021/07/03 10:53:36;;;;;;;13.27;8.73;;;;;;;20.84;59.89;101398.63;5073240;28;20040;-52
2021/07/03 10:56:11;;;;;;;15.43;10.60;;;;;;;20.91;60.02;101397.34;5055073;28;20166;-52
2021/07/03 10:58:40;;;;;;;18.73;11.05;;;;;;;20.96;60.01;101392.44;5072709;28;20487;-52
2021/07/03 11:01:11;;;;;;;16.98;11.48;;;;;;;20.95;59.97;101388.06;5054858;28;20407;-55
2021/07/03 11:03:43;;;;;;;15.38;10.13;;;;;;;20.95;60.45;101390.00;5072827;28;20104;-52
2021/07/03 11:06:21;;;;;;;20.33;10.07;;;;;;;20.97;60.04;101388.56;5072148;28;20049;-54
2021/07/03 11:08:53;;;;;;;13.30;8.88;;;;;;;21.00;59.45;101389.88;5072478;28;20105;-52
2021/07/03 11:11:20;;;;;;;12.68;7.90;;;;;;;21.02;58.33;101393.09;5072724;28;20052;-54
2021/07/03 11:13:55;;;;;;;15.20;8.35;;;;;;;21.05;57.57;101390.50;5072163;28;20047;-52
2021/07/03 11:16:22;;;;;;;12.88;8.65;;;;;;;21.08;57.77;101389.03;5072481;28;20411;-53
2021/07/03 11:18:50;;;;;;;12.68;7.93;;;;;;;21.11;57.93;101388.38;5072500;28;20102;-52
2021/07/03 11:21:18;;;;;;;14.95;8.82;;;;;;;21.13;58.38;101377.78;5072277;28;20052;-55